PAPBPASN

Guest
Details From PAPB - ST GEORGE
To PASN - ST PAUL ISLAND
Flight Number -
Tags generated
Created
Modified
Stats Distance 40 nm / 74 km
Max Altitude 3,000 ft / 914 m
Waypoints 3
Social Downloads 0
Likes 0
Share VATSIM

Download

Looking for another format? Having issues loading an existing format? Contact us
Advertisement - Login to hide

Notes

Basic altitude profile: - Ascent Rate: 2500ft/min - Ascent Speed: 250kts - Cruise Altitude: 35000ft - Cruise Speed: 420kts - Descent Rate: 1500ft/min - Descent Speed: 250kts Options: - Use NATs: yes - Use PACOTS: yes - Use low airways: yes - Use high airways: yes

Route

PAPB RANND PASN

ID Type Via Altitude Latitude Longitude Leg Dist Tot Dist Heading (true) Name
O PAPB APT - 0 ft / 0 m 56.57735˚ -169.66374˚ - 0 nm - ST GEORGE
RANND FIX - 3,000 ft / 914 m 56.96513˚ -169.99111˚ 25 nm 25 nm 335° / 335° -
O PASN APT - 0 ft / 0 m 57.16732˚ -170.22044˚ 14 nm 39 nm 328° / 328° ST PAUL ISLAND

Altitude Profile

Advertisement - Login to hide

PAPB

Details ICAO PAPB (PBV)
Name ST GEORGE
Region USA (Alaska)
Timezone America/Adak (UTC-10.0)
Stats Elevation 125 ft / 38 m (AMSL)
Location 56.577351° -169.663736°
Runways 1
Magnetic Variation 7.800° E

METAR

PAPB 160153Z AUTO 20009KT 10SM CLR 03/01 A2879 RMK AO2 SLP736 T00280006 TSNO

Decode

TAF

Not found

Departure Runways

ID Width Length Bearing (true) Bearing (mag) Surface Threshold Offset Overrun Length
11 150 ft / 46 m 4,987 ft / 1,520 m 118.32° 110.52° Gravel 0 ft / 0 m 0 ft / 0 m
29 150 ft / 46 m 4,987 ft / 1,520 m 298.34° 290.54° Gravel 0 ft / 0 m 0 ft / 0 m

PASN

Details ICAO PASN (SNP)
Name ST PAUL ISLAND
Region USA (Alaska)
Timezone America/Adak (UTC-10.0)
Stats Elevation 63 ft / 19 m (AMSL)
Location 57.167319° -170.220444°
Runways 1
Magnetic Variation 7.552° E

METAR

PASN 160153Z AUTO 30005KT 10SM OVC015 01/00 A2878 RMK AO2 SLP746 T00060000 TSNO

Decode

TAF

PASN 152345Z 1600/1624 27010KT P6SM SCT035 BKN100 FM160400 30010KT P6SM -SHSN SCT015 BKN050 FM160900 33015G25KT 3SM -SHSN BLSN OVC010

Decode

Destination Runways

ID Width Length Bearing (true) Bearing (mag) Surface Threshold Offset Overrun Length
18 150 ft / 46 m 6,488 ft / 1,977 m 189.66° 182.11° Asphalt 0 ft / 0 m 0 ft / 0 m
36 150 ft / 46 m 6,488 ft / 1,977 m 9.65° 2.10° Asphalt 0 ft / 0 m 0 ft / 0 m

Approach Navaids

Runway Type Ident Frequency Range Bearing (true) Bearing (mag) Slope Elevation
36 Localiser IPAU 109.90 MHz 18 nm / 33 km 9.64° 2.09° - 63 ft / 19 m (AMSL)
36 Glidescope IPAU 109.90 MHz 10 nm / 19 km 9.66° 2.10° 3.00° 34 ft / 10 m (AMSL)